Arcadia, Utah
Current Conditions -  °F | °C
As of 6:53 AM on Saturday 22 Nov 2014 (Local Time) from KPUC Reporting Station
Clear Clear  
Wind Chill: -3°   Ceiling: Unl
Heat Index: -3°   Visibility: 10mi
Dew Point: -10°   Wind: 3mph
Humidity: 58%   Direction: 90°E
Pressure: 30.03"   Gusts: NA
Location:  39.9707°N, 110.477°W
Report Text: KPUC 221353Z AUTO 09003KT 10SM CLR M03/M10 A3003 RMK AO2 SLP206 T10281100
Loading
Personal Weather Stations






























Interactive Weather Map New forecast layout! Learn more

10-Day Weather Forecast

Advertisements
Track Severe Weather on mobile